Time;durP1;ratioP1;P1;durP2;ratioP2;P2;SDS_P1;SDS_P2;PMS_P1;PMS_P2;Temp;Humidity;BMP_temperature;BMP_pressure;BME280_temperature;BME280_humidity;BME280_pressure;Samples;Min_cycle;Max_cycle;Signal;HPM_P1;HPM_P2
2021/08/06 00:01:19;;;;;;;;;3.00;2.00;;;;;19.86;65.56;100015.59;4926049;28;45705;-87
2021/08/06 00:03:44;;;;;;;;;1.00;1.00;;;;;19.87;65.37;100022.66;4926001;28;46913;-87
2021/08/06 00:06:11;;;;;;;;;1.67;1.67;;;;;19.81;65.32;100026.53;4943702;28;45206;-86
2021/08/06 00:08:37;;;;;;;;;3.67;1.67;;;;;19.74;65.36;100021.59;4931075;28;45277;-87
2021/08/06 00:11:03;;;;;;;;;1.67;1.67;;;;;19.77;65.23;100026.75;4943198;28;45453;-84
2021/08/06 00:13:29;;;;;;;;;1.00;1.00;;;;;19.71;64.98;100025.28;4942155;28;45659;-84
2021/08/06 00:15:57;;;;;;;;;1.00;1.00;;;;;19.72;65.25;100023.47;4924183;28;45365;-83
2021/08/06 00:18:23;;;;;;;;;2.67;2.00;;;;;19.67;65.09;100013.03;4924511;28;45330;-84
2021/08/06 00:20:48;;;;;;;;;3.00;2.67;;;;;19.66;64.86;100021.09;4923617;28;45500;-84
2021/08/06 00:23:14;;;;;;;;;3.00;2.67;;;;;19.70;64.86;100028.03;4937932;28;45665;-84
2021/08/06 00:25:39;;;;;;;;;3.67;1.67;;;;;19.64;64.90;100017.66;4925748;28;45327;-86
2021/08/06 00:28:04;;;;;;;;;0.67;0.67;;;;;19.63;64.74;100021.28;4943157;28;45248;-85
2021/08/06 00:30:30;;;;;;;;;1.00;1.00;;;;;19.65;64.97;100027.41;4925366;28;45745;-85
2021/08/06 00:32:56;;;;;;;;;2.00;2.00;;;;;19.60;64.60;100007.13;4942044;28;45208;-85
2021/08/06 00:35:22;;;;;;;;;1.00;1.00;;;;;19.64;64.29;100025.66;4924857;28;45298;-84
2021/08/06 00:37:47;;;;;;;;;1.33;1.33;;;;;19.58;64.70;100014.34;4925417;28;45407;-85
2021/08/06 00:40:33;;;;;;;;;3.67;1.33;;;;;19.59;64.65;100024.09;4941812;28;45565;-86
2021/08/06 00:43:11;;;;;;;;;2.00;2.00;;;;;19.61;64.06;100030.22;4925245;28;47720;-84
2021/08/06 00:45:43;;;;;;;;;1.67;1.67;;;;;19.64;64.43;100036.34;4949113;28;45766;-86
2021/08/06 00:48:09;;;;;;;;;3.00;2.33;;;;;19.58;64.00;100026.84;4928571;28;45428;-85
2021/08/06 00:50:35;;;;;;;;;2.00;2.00;;;;;19.58;63.96;100022.38;4960785;28;45290;-85
2021/08/06 00:53:00;;;;;;;;;3.67;1.33;;;;;19.63;63.98;100039.97;4932236;28;48176;-84
2021/08/06 00:55:26;;;;;;;;;1.33;1.33;;;;;19.58;63.67;100026.84;4929109;28;45381;-86
2021/08/06 00:57:52;;;;;;;;;2.33;1.67;;;;;19.64;63.96;100029.19;4933831;28;45209;-86
2021/08/06 01:00:18;;;;;;;;;2.67;0.67;;;;;19.61;63.51;100018.66;4947553;28;45241;-86
2021/08/06 01:02:56;;;;;;;;;3.33;2.00;;;;;19.63;63.75;100030.13;4946252;28;45212;-86
2021/08/06 01:05:29;;;;;;;;;1.67;0.67;;;;;19.60;64.15;100028.50;4945215;28;45370;-84
2021/08/06 01:08:16;;;;;;;;;1.00;1.00;;;;;19.61;64.15;100024.88;4940036;28;45254;-84
2021/08/06 01:11:33;;;;;;;;;5.33;4.00;;;;;19.63;63.76;100042.63;4928345;28;45655;-86
2021/08/06 01:14:02;;;;;;;;;2.00;1.00;;;;;19.63;64.12;100042.63;4946353;28;46855;-85
2021/08/06 01:16:37;;;;;;;;;2.00;2.00;;;;;19.58;64.06;100025.03;4930964;28;45435;-85
2021/08/06 01:19:49;;;;;;;;;;;;;;;;;;;;;
2021/08/06 01:22:23;;;;;;;;;2.00;2.00;;;;;19.66;63.62;100035.34;4943783;28;73217;-85
2021/08/06 01:25:16;;;;;;;;;2.00;2.00;;;;;19.59;63.98;100023.22;4945211;28;45455;-85
2021/08/06 01:27:53;;;;;;;;;2.67;1.33;;;;;19.63;63.73;100030.13;4948574;28;45282;-85
2021/08/06 01:30:21;;;;;;;;;2.00;2.00;;;;;19.61;63.49;100032.88;4945040;28;45535;-86
2021/08/06 01:33:07;;;;;;;;;;;;;;;;;;;;;
2021/08/06 01:36:18;;;;;;;;;;;;;;;;;;;;;
2021/08/06 01:38:56;;;;;;;;;;;;;;;;;;;;;
2021/08/06 01:41:30;;;;;;;;;2.00;2.00;;;;;19.60;63.66;100022.28;4944419;28;69873;-87
2021/08/06 01:44:36;;;;;;;;;1.67;1.67;;;;;19.60;63.81;100028.50;4924715;28;45387;-86
2021/08/06 01:47:16;;;;;;;;;4.00;3.00;;;;;19.58;63.67;100018.84;4942939;28;47039;-87
2021/08/06 01:49:48;;;;;;;;;2.67;2.67;;;;;19.59;63.80;100020.53;4944745;28;45466;-86
2021/08/06 01:52:20;;;;;;;;;3.00;2.00;;;;;19.54;63.99;100002.13;4943650;28;45552;-86
2021/08/06 01:54:48;;;;;;;;;2.33;2.33;;;;;19.58;63.55;100018.84;4927497;28;45584;-86
2021/08/06 01:57:14;;;;;;;;;3.00;1.67;;;;;19.55;63.94;100027.88;4945091;28;45510;-86
2021/08/06 01:59:50;;;;;;;;;2.33;2.33;;;;;19.55;63.63;100021.66;4929002;28;45581;-86
2021/08/06 02:02:18;;;;;;;;;2.33;2.33;;;;;19.59;63.93;100017.88;4946824;28;45243;-86
2021/08/06 02:04:47;;;;;;;;;3.00;3.00;;;;;19.59;63.76;100021.44;4928351;28;45860;-87
2021/08/06 02:07:21;;;;;;;;;2.33;2.33;;;;;19.57;63.77;100028.66;4943892;28;47134;-85
2021/08/06 02:09:50;;;;;;;;;4.00;4.00;;;;;19.52;63.97;100027.19;4933428;28;45294;-87
2021/08/06 02:12:16;;;;;;;;;2.00;2.00;;;;;19.49;63.64;100014.00;4944198;28;45218;-87
2021/08/06 02:14:43;;;;;;;;;3.00;0.33;;;;;19.47;63.59;100014.06;4928338;28;45552;-87
2021/08/06 02:17:11;;;;;;;;;3.00;1.00;;;;;19.53;63.89;100028.91;4928251;28;47363;-88
2021/08/06 02:19:38;;;;;;;;;1.67;1.67;;;;;19.46;63.63;100020.34;4945840;28;45296;-88
2021/08/06 02:22:06;;;;;;;;;1.00;1.00;;;;;19.50;63.32;100029.91;4945825;28;45240;-87
2021/08/06 02:24:33;;;;;;;;;2.33;1.33;;;;;19.47;63.70;100019.41;4939635;28;45372;-86
2021/08/06 02:27:00;;;;;;;;;3.67;2.00;;;;;19.49;63.65;100027.34;4927406;28;48106;-86
2021/08/06 02:29:29;;;;;;;;;2.00;2.00;;;;;19.45;63.15;100020.41;4927514;28;45799;-86
2021/08/06 02:32:00;;;;;;;;;1.67;1.67;;;;;19.42;63.51;100023.25;4961749;28;45265;-85
2021/08/06 02:34:59;;;;;;;;;;;;;;;;;;;;;
2021/08/06 02:37:49;;;;;;;;;;;;;;;;;;;;;
2021/08/06 02:40:15;;;;;;;;;4.00;2.00;;;;;19.36;63.24;100040.47;4943366;28;71329;-86
2021/08/06 02:42:46;;;;;;;;;3.67;3.67;;;;;19.37;62.79;100043.03;4927886;28;45497;-85
2021/08/06 02:45:22;;;;;;;;;;;;;;;;;;;;;
2021/08/06 02:47:48;;;;;;;;;1.33;1.33;;;;;19.35;63.37;100049.38;4943570;28;74396;-85
2021/08/06 02:50:16;;;;;;;;;2.33;2.33;;;;;19.28;62.86;100040.84;4943258;28;45402;-85
2021/08/06 02:52:44;;;;;;;;;3.33;2.33;;;;;19.27;63.05;100041.78;4943491;28;45291;-83
2021/08/06 02:55:10;;;;;;;;;1.33;1.33;;;;;19.29;63.08;100058.56;4926201;28;45525;-84
2021/08/06 02:57:35;;;;;;;;;2.33;2.00;;;;;19.31;63.24;100059.38;4926202;28;48073;-84
2021/08/06 03:00:05;;;;;;;;;2.33;0.67;;;;;19.25;62.70;100054.34;4926437;28;45614;-84
2021/08/06 03:02:30;;;;;;;;;1.00;1.00;;;;;19.27;62.53;100065.81;4926334;28;45345;-84
2021/08/06 03:04:58;;;;;;;;;3.00;3.00;;;;;19.31;62.45;100064.72;4925803;28;45438;-85
2021/08/06 03:07:24;;;;;;;;;0.67;0.67;;;;;19.29;62.66;100069.25;4943375;28;46596;-84
2021/08/06 03:09:59;;;;;;;;;2.00;2.00;;;;;19.26;62.60;100055.22;4943141;28;45391;-84
2021/08/06 03:12:25;;;;;;;;;2.33;1.00;;;;;19.30;62.31;100073.66;4943158;28;45227;-84
2021/08/06 03:14:50;;;;;;;;;3.33;2.33;;;;;19.27;62.76;100071.16;4943045;28;45654;-85
2021/08/06 03:17:18;;;;;;;;;2.00;0.67;;;;;19.31;62.43;100077.19;4942713;28;46132;-83
2021/08/06 03:19:54;;;;;;;;;;;;;;;;;;;;;
2021/08/06 03:22:21;;;;;;;;;1.67;1.67;;;;;19.21;62.46;100060.75;4941949;28;68658;-84
2021/08/06 03:24:52;;;;;;;;;4.00;2.00;;;;;19.26;62.52;100076.56;4929642;28;45495;-84
2021/08/06 03:27:25;;;;;;;;;2.00;2.00;;;;;19.27;62.37;100080.94;4925085;28;46200;-84
2021/08/06 03:29:51;;;;;;;;;3.67;2.00;;;;;19.19;62.21;100067.97;4925529;28;45197;-85
2021/08/06 03:32:16;;;;;;;;;2.33;1.33;;;;;19.22;62.23;100075.84;4942813;28;46280;-85
2021/08/06 03:34:41;;;;;;;;;3.00;2.67;;;;;19.13;62.32;100069.16;4941156;28;45247;-85
2021/08/06 03:37:07;;;;;;;;;2.00;2.00;;;;;19.10;62.01;100071.97;4943924;28;45870;-84
2021/08/06 03:39:32;;;;;;;;;1.00;1.00;;;;;19.11;62.25;100075.50;4943487;28;45321;-85
2021/08/06 03:41:58;;;;;;;;;2.67;1.33;;;;;19.05;62.49;100071.34;4942018;28;45583;-83
2021/08/06 03:44:23;;;;;;;;;0.67;0.67;;;;;19.06;62.54;100067.75;4942196;28;45576;-84
2021/08/06 03:46:49;;;;;;;;;1.00;0.67;;;;;19.07;62.25;100073.94;4924804;28;46127;-84
2021/08/06 03:49:14;;;;;;;;;3.33;0.33;;;;;19.03;62.36;100069.69;4940893;28;45394;-84
2021/08/06 03:51:39;;;;;;;;;2.00;2.00;;;;;19.07;62.29;100073.94;4940844;28;45424;-84
2021/08/06 03:54:05;;;;;;;;;3.00;2.33;;;;;18.99;62.37;100063.66;4942114;28;45395;-84
2021/08/06 03:56:30;;;;;;;;;1.33;1.33;;;;;18.98;62.37;100058.38;4942336;28;45596;-83
2021/08/06 03:58:56;;;;;;;;;1.00;1.00;;;;;18.95;62.40;100078.06;4924889;28;45470;-82
2021/08/06 04:01:21;;;;;;;;;0.33;0.33;;;;;18.94;62.45;100089.69;4942067;28;45310;-82
2021/08/06 04:03:47;;;;;;;;;1.00;1.00;;;;;18.88;61.96;100079.31;4940434;28;45583;-82
2021/08/06 04:06:12;;;;;;;;;1.33;1.33;;;;;18.85;62.22;100076.81;4924310;28;46552;-82
2021/08/06 04:08:37;;;;;;;;;1.00;1.00;;;;;18.86;62.27;100083.88;4924485;28;45834;-82
2021/08/06 04:11:03;;;;;;;;;1.67;1.00;;;;;18.78;62.46;100089.56;4926473;28;45305;-82
2021/08/06 04:13:28;;;;;;;;;1.00;1.00;;;;;18.82;62.47;100091.16;4924623;28;45670;-82
2021/08/06 04:15:54;;;;;;;;;1.67;0.33;;;;;18.82;62.24;100107.16;4940465;28;45357;-82
2021/08/06 04:18:19;;;;;;;;;1.00;1.00;;;;;18.84;61.80;100104.41;4924103;28;45471;-82
2021/08/06 04:20:45;;;;;;;;;2.33;1.33;;;;;18.80;62.55;100087.69;4956682;28;45243;-82
2021/08/06 04:23:10;;;;;;;;;2.33;1.67;;;;;18.83;62.34;100098.22;4941603;28;45331;-82
2021/08/06 04:25:35;;;;;;;;;1.00;1.00;;;;;18.76;62.07;100103.91;4941404;28;46342;-82
2021/08/06 04:28:01;;;;;;;;;1.67;1.67;;;;;18.78;62.44;100102.91;4941577;28;45165;-82
2021/08/06 04:30:26;;;;;;;;;1.33;1.33;;;;;18.75;62.59;100116.38;4940360;28;45370;-82
2021/08/06 04:32:52;;;;;;;;;1.00;1.00;;;;;18.73;62.85;100102.22;4916107;28;45676;-82
2021/08/06 04:35:18;;;;;;;;;2.00;1.00;;;;;18.77;62.76;100130.53;4941373;28;46173;-82
2021/08/06 04:37:52;;;;;;;;;1.00;1.00;;;;;18.71;62.60;100115.66;4924293;28;45431;-82
2021/08/06 04:40:19;;;;;;;;;1.00;1.00;;;;;18.71;63.20;100123.66;4956406;28;45302;-83
2021/08/06 04:42:45;;;;;;;;;2.00;2.00;;;;;18.77;62.90;100130.53;4940652;28;45467;-84
2021/08/06 04:45:11;;;;;;;;;2.00;1.67;;;;;18.73;63.00;100129.75;4941486;28;46132;-84
2021/08/06 04:47:48;;;;;;;;;2.67;2.33;;;;;18.68;62.72;100129.13;4940448;28;45439;-84
2021/08/06 04:50:16;;;;;;;;;4.00;4.00;;;;;18.73;62.43;100142.22;4940789;28;45311;-84
2021/08/06 04:52:42;;;;;;;;;1.00;1.00;;;;;18.69;62.87;100132.66;4941473;28;45523;-84
2021/08/06 04:55:09;;;;;;;;;2.00;1.00;;;;;18.65;62.99;100128.38;4941886;28;46276;-84
2021/08/06 04:57:36;;;;;;;;;2.00;2.00;;;;;18.65;62.65;100131.06;4941832;28;45331;-84
2021/08/06 05:00:02;;;;;;;;;2.67;1.33;;;;;18.71;62.84;100138.75;4929119;28;45383;-84
2021/08/06 05:02:28;;;;;;;;;3.00;3.00;;;;;18.69;62.93;100138.84;4941588;28;45551;-84
2021/08/06 05:04:53;;;;;;;;;1.00;1.00;;;;;18.64;62.83;100146.19;4941131;28;45550;-84
2021/08/06 05:07:19;;;;;;;;;2.00;2.00;;;;;18.69;62.53;100144.19;4924157;28;45354;-83
2021/08/06 05:09:45;;;;;;;;;1.67;1.67;;;;;18.71;62.76;100149.41;4924286;28;45271;-83
2021/08/06 05:12:11;;;;;;;;;4.33;4.33;;;;;18.63;62.45;100131.13;4941265;28;45374;-83
2021/08/06 05:14:37;;;;;;;;;1.00;1.00;;;;;18.66;62.89;100140.81;4924335;28;46956;-84
2021/08/06 05:17:02;;;;;;;;;4.00;2.00;;;;;18.69;62.54;100146.84;4941483;28;45452;-84
2021/08/06 05:19:28;;;;;;;;;1.33;1.00;;;;;18.63;62.58;100146.25;4942037;28;45279;-84
2021/08/06 05:21:56;;;;;;;;;1.67;1.67;;;;;18.70;62.18;100153.91;4941034;28;45461;-87
2021/08/06 05:24:21;;;;;;;;;1.00;1.00;;;;;18.67;62.20;100150.50;4942705;28;45491;-87
2021/08/06 05:26:47;;;;;;;;;0.00;0.00;;;;;18.68;62.24;100145.13;4943563;28;45341;-84
2021/08/06 05:29:12;;;;;;;;;1.00;1.00;;;;;18.68;62.15;100133.56;4960506;28;45216;-84
2021/08/06 05:31:38;;;;;;;;;1.67;1.67;;;;;18.70;61.81;100126.38;4934896;28;45427;-84
2021/08/06 05:34:03;;;;;;;;;1.67;1.67;;;;;18.71;61.58;100136.97;4943149;28;46431;-83
2021/08/06 05:36:28;;;;;;;;;2.00;2.00;;;;;18.75;61.53;100148.38;4959079;28;45295;-83
2021/08/06 05:38:54;;;;;;;;;2.00;0.00;;;;;18.78;61.34;100158.03;4959118;28;45562;-84
2021/08/06 05:41:19;;;;;;;;;0.67;0.67;;;;;18.79;61.29;100146.44;4944327;28;45501;-84
2021/08/06 05:43:45;;;;;;;;;2.67;1.00;;;;;18.76;61.40;100142.09;4959181;28;46338;-84
2021/08/06 05:46:10;;;;;;;;;2.00;1.00;;;;;18.74;61.17;100149.31;4944490;28;45335;-83
2021/08/06 05:48:36;;;;;;;;;3.00;1.33;;;;;18.81;61.58;100158.75;4944257;28;45228;-84
2021/08/06 05:51:01;;;;;;;;;3.33;2.00;;;;;18.81;61.57;100161.41;4927433;28;45276;-90
2021/08/06 05:53:27;;;;;;;;;0.33;0.33;;;;;18.80;61.49;100162.38;4944598;28;45410;-85
2021/08/06 05:55:53;;;;;;;;;2.67;1.00;;;;;18.82;61.55;100147.16;4944867;28;45350;-87
2021/08/06 05:58:18;;;;;;;;;0.00;0.00;;;;;18.84;61.24;100141.75;4944888;28;45465;-84
2021/08/06 06:00:44;;;;;;;;;2.00;2.00;;;;;18.87;61.29;100146.94;4944282;28;45499;-84
2021/08/06 06:03:12;;;;;;;;;0.00;0.00;;;;;18.87;61.30;100134.47;4927344;28;47159;-86
2021/08/06 06:05:38;;;;;;;;;1.00;1.00;;;;;18.94;61.10;100146.56;4927491;28;45343;-86
2021/08/06 06:08:04;;;;;;;;;0.33;0.33;;;;;18.95;60.89;100158.09;4928407;28;45343;-85
2021/08/06 06:10:29;;;;;;;;;1.00;1.00;;;;;18.97;60.79;100150.88;4944050;28;45522;-88
2021/08/06 06:12:55;;;;;;;;;1.67;1.67;;;;;19.01;60.62;100159.63;4944117;28;45385;-85
2021/08/06 06:15:21;;;;;;;;;1.00;0.33;;;;;19.10;60.47;100165.38;4943701;28;45713;-85
2021/08/06 06:17:47;;;;;;;;;1.67;0.67;;;;;19.10;60.33;100169.84;4930978;28;45221;-83
2021/08/06 06:20:13;;;;;;;;;0.33;0.33;;;;;19.17;60.87;100181.97;4922712;28;45366;-82
2021/08/06 06:22:39;;;;;;;;;0.33;0.33;;;;;19.19;61.01;100172.06;4925913;28;47883;-82
2021/08/06 06:25:04;;;;;;;;;2.33;1.67;;;;;19.16;60.99;100167.75;4942833;28;45476;-82
2021/08/06 06:27:30;;;;;;;;;2.00;2.00;;;;;19.18;60.45;100171.19;4943473;28;45365;-83
2021/08/06 06:29:55;;;;;;;;;0.67;0.67;;;;;19.23;60.54;100175.47;4941976;28;45553;-82
2021/08/06 06:32:21;;;;;;;;;0.00;0.00;;;;;19.25;60.61;100174.44;4932012;28;47271;-83
2021/08/06 06:34:46;;;;;;;;;3.00;1.00;;;;;19.28;60.88;100168.09;4943471;28;45357;-81
2021/08/06 06:37:12;;;;;;;;;2.00;0.00;;;;;19.32;60.57;100172.31;4925992;28;45378;-82
2021/08/06 06:39:37;;;;;;;;;3.00;2.00;;;;;19.31;60.57;100173.28;4942226;28;45303;-81
2021/08/06 06:42:02;;;;;;;;;0.00;0.00;;;;;19.36;60.59;100181.94;4958095;28;48009;-81
2021/08/06 06:44:28;;;;;;;;;1.00;0.00;;;;;19.35;60.60;100166.84;4943477;28;45300;-81
2021/08/06 06:46:53;;;;;;;;;0.67;0.67;;;;;19.39;60.90;100174.63;4925780;28;45456;-82
2021/08/06 06:49:19;;;;;;;;;1.33;0.00;;;;;19.37;60.45;100175.63;4941531;28;45497;-82
2021/08/06 06:51:44;;;;;;;;;0.00;0.00;;;;;19.46;60.82;100198.34;4957095;28;46181;-81
2021/08/06 06:54:10;;;;;;;;;0.00;0.00;;;;;19.41;60.13;100187.91;4922302;28;45253;-81
2021/08/06 06:56:35;;;;;;;;;1.00;1.00;;;;;19.44;61.11;100194.91;4939981;28;45257;-81
2021/08/06 06:59:01;;;;;;;;;3.00;1.00;;;;;19.44;60.78;100189.56;4925145;28;45499;-81
2021/08/06 07:01:27;;;;;;;;;0.00;0.00;;;;;19.45;60.92;100194.81;4942326;28;45460;-81
2021/08/06 07:03:52;;;;;;;;;0.67;0.67;;;;;19.43;60.61;100183.34;4925357;28;45884;-84
2021/08/06 07:06:19;;;;;;;;;1.00;1.00;;;;;19.44;60.52;100195.75;4941611;28;45532;-87
2021/08/06 09:28:08;;;;;;;;;1.00;1.00;;;;;20.92;57.20;100280.81;4972819;28;45477;-77
2021/08/06 09:30:38;;;;;;;;;0.00;0.00;;;;;20.95;56.95;100278.94;4942508;28;46034;-77
2021/08/06 09:33:07;;;;;;;;;2.00;2.00;;;;;20.91;56.86;100287.13;4960702;28;45600;-77
2021/08/06 09:35:34;;;;;;;;;0.00;0.00;;;;;20.93;56.72;100290.59;4960173;28;45681;-79
2021/08/06 09:38:01;;;;;;;;;2.00;1.00;;;;;20.99;57.17;100284.03;4961904;28;45421;-78
2021/08/06 09:40:30;;;;;;;;;1.67;0.67;;;;;21.12;56.79;100293.13;4936553;28;45488;-79
2021/08/06 09:42:59;;;;;;;;;2.33;1.00;;;;;21.26;56.81;100292.38;4960764;28;46682;-78
2021/08/06 09:45:35;;;;;;;;;1.00;1.00;;;;;21.42;56.52;100289.72;4947958;28;45426;-78
2021/08/06 09:48:02;;;;;;;;;0.00;0.00;;;;;21.56;56.01;100281.78;4961354;28;45279;-79
2021/08/06 09:50:36;;;;;;;;;1.67;1.00;;;;;21.68;55.64;100293.63;4959806;28;45464;-78
2021/08/06 09:53:03;;;;;;;;;1.00;1.00;;;;;21.72;55.02;100295.16;4960680;28;45394;-79
2021/08/06 09:55:35;;;;;;;;;0.00;0.00;;;;;21.71;55.35;100288.09;4959665;28;45344;-78
2021/08/06 09:58:05;;;;;;;;;1.00;1.00;;;;;21.74;55.72;100289.72;4961247;28;45287;-79
2021/08/06 10:00:30;;;;;;;;;1.00;1.00;;;;;21.83;55.34;100289.19;4959947;28;45613;-78
2021/08/06 10:02:57;;;;;;;;;3.00;1.00;;;;;21.91;55.48;100292.28;4959297;28;45771;-83
2021/08/06 10:05:25;;;;;;;;;0.67;0.00;;;;;21.95;54.98;100288.47;4944411;28;45457;-82
2021/08/06 10:07:56;;;;;;;;;1.33;1.00;;;;;21.98;54.70;100296.34;4961342;28;45413;-81
2021/08/06 10:10:29;;;;;;;;;1.00;1.00;;;;;21.94;54.92;100291.22;4959780;28;45563;-82
2021/08/06 10:12:55;;;;;;;;;1.67;1.33;;;;;21.93;54.93;100294.88;4942472;28;48112;-81
2021/08/06 10:15:22;;;;;;;;;0.00;0.00;;;;;21.88;54.44;100297.81;4961459;28;45370;-83
2021/08/06 10:17:49;;;;;;;;;0.00;0.00;;;;;21.84;54.98;100295.41;4934693;28;45525;-82
2021/08/06 10:20:18;;;;;;;;;0.33;0.33;;;;;21.78;54.06;100299.28;4963602;28;45548;-82
2021/08/06 10:22:43;;;;;;;;;1.00;1.00;;;;;21.69;54.75;100306.06;4960946;28;45379;-79
2021/08/06 10:25:11;;;;;;;;;1.00;1.00;;;;;21.68;54.65;100309.69;4970638;28;45451;-81
2021/08/06 10:27:41;;;;;;;;;1.00;1.00;;;;;21.73;54.16;100296.00;4962033;28;45533;-81
2021/08/06 10:30:19;;;;;;;;;0.67;0.67;;;;;21.74;54.44;100295.94;4974372;28;45370;-80
2021/08/06 10:33:03;;;;;;;;;0.00;0.00;;;;;21.83;54.42;100297.22;4960300;28;46254;-80
2021/08/06 10:35:53;;;;;;;;;1.00;1.00;;;;;21.99;54.82;100300.72;4943605;28;45371;-80
2021/08/06 10:38:40;;;;;;;;;1.00;1.00;;;;;22.21;53.80;100294.13;4943754;28;45544;-81
2021/08/06 10:41:14;;;;;;;;;2.00;1.00;;;;;22.26;52.98;100300.09;4960087;28;45463;-81
2021/08/06 10:43:44;;;;;;;;;1.00;0.00;;;;;22.22;53.78;100302.09;4948211;28;45335;-80
2021/08/06 10:46:11;;;;;;;;;1.00;0.33;;;;;22.20;53.53;100300.47;4954844;28;45401;-81
2021/08/06 10:48:38;;;;;;;;;2.67;1.00;;;;;22.13;52.59;100291.91;4942915;28;45367;-80
2021/08/06 10:51:15;;;;;;;;;1.67;1.00;;;;;22.05;52.69;100312.06;4960180;28;45438;-80
2021/08/06 10:53:43;;;;;;;;;0.00;0.00;;;;;21.97;53.04;100299.97;4949220;28;45418;-80
2021/08/06 10:56:17;;;;;;;;;1.00;1.00;;;;;22.02;54.30;100311.31;4960116;28;45422;-79
2021/08/06 10:58:49;;;;;;;;;0.67;0.67;;;;;22.09;54.31;100302.88;4960161;28;45228;-82
2021/08/06 11:01:31;;;;;;;;;0.00;0.00;;;;;22.17;53.66;100311.34;4959991;28;45428;-82
2021/08/06 11:04:07;;;;;;;;;1.00;0.00;;;;;22.15;52.89;100298.00;4958682;28;47119;-81
2021/08/06 11:06:39;;;;;;;;;0.67;0.67;;;;;22.21;53.23;100303.06;4946877;28;45461;-78
2021/08/06 11:09:07;;;;;;;;;1.00;1.00;;;;;22.28;52.58;100316.97;4960452;28;45368;-85
2021/08/06 11:11:46;;;;;;;;;1.00;1.00;;;;;22.38;52.84;100331.56;4943581;28;45678;-83
2021/08/06 11:14:17;;;;;;;;;1.00;1.00;;;;;22.50;52.78;100316.53;4959651;28;47588;-83
2021/08/06 11:17:04;;;;;;;;;0.00;0.00;;;;;22.76;52.50;100306.06;4960508;28;45660;-83
2021/08/06 11:19:35;;;;;;;;;2.00;1.00;;;;;23.04;51.35;100314.16;4950976;28;45514;-84
2021/08/06 11:22:04;;;;;;;;;1.00;1.00;;;;;23.19;51.23;100308.78;4959885;28;45305;-83
2021/08/06 11:24:45;;;;;;;;;1.00;0.33;;;;;23.37;50.81;100304.06;4957846;28;46501;-83
2021/08/06 11:27:12;;;;;;;;;1.00;1.00;;;;;23.50;50.59;100291.56;4942487;28;45480;-83
2021/08/06 11:29:39;;;;;;;;;1.67;1.33;;;;;23.61;50.53;100290.88;4943163;28;45477;-82
2021/08/06 11:32:14;;;;;;;;;2.00;1.00;;;;;23.74;49.59;100302.56;4955170;28;45926;-83
2021/08/06 11:34:54;;;;;;;;;0.00;0.00;;;;;23.78;49.30;100304.06;4959748;28;46133;-83
2021/08/06 11:37:22;;;;;;;;;1.00;1.00;;;;;23.74;49.12;100297.19;4953754;28;45384;-83
2021/08/06 11:40:09;;;;;;;;;2.33;0.33;;;;;23.68;48.38;100300.22;4957215;28;46686;-83
2021/08/06 11:42:38;;;;;;;;;0.00;0.00;;;;;23.65;48.39;100287.84;4956267;28;45736;-84
2021/08/06 11:45:08;;;;;;;;;0.67;0.33;;;;;23.66;48.76;100305.72;4939551;28;47089;-83
2021/08/06 11:47:52;;;;;;;;;1.33;1.00;;;;;23.64;48.73;100291.50;4956575;28;45498;-84
2021/08/06 11:50:35;;;;;;;;;2.00;2.00;;;;;23.80;49.36;100295.91;4955290;28;45437;-84
2021/08/06 11:53:00;;;;;;;;;2.00;1.00;;;;;24.04;48.56;100299.66;4937923;28;45755;-83
2021/08/06 11:55:30;;;;;;;;;1.00;1.00;;;;;24.17;47.63;100300.56;4957677;28;47122;-87
2021/08/06 11:57:57;;;;;;;;;1.33;1.33;;;;;24.17;47.46;100289.81;4942778;28;45912;-85
2021/08/06 12:00:27;;;;;;;;;1.00;1.00;;;;;24.27;47.48;100302.63;4960059;28;45183;-84
2021/08/06 12:03:17;;;;;;;;;2.00;1.00;;;;;24.33;46.24;100296.84;4961215;28;45461;-89
2021/08/06 12:05:50;;;;;;;;;1.00;1.00;;;;;24.27;47.21;100291.84;4959510;28;47227;-86
2021/08/06 12:08:21;;;;;;;;;1.00;1.00;;;;;24.10;47.56;100298.38;4960467;28;45279;-88
2021/08/06 12:10:53;;;;;;;;;1.00;0.33;;;;;23.91;47.78;100307.69;4944020;28;44818;-92
2021/08/06 12:13:23;;;;;;;;;2.00;1.00;;;;;23.69;47.35;100297.47;4944417;28;45374;-87
2021/08/06 12:16:04;;;;;;;;;0.67;0.67;;;;;23.57;47.42;100322.44;4960374;28;45938;-85
2021/08/06 12:18:30;;;;;;;;;1.00;1.00;;;;;23.50;48.28;100315.75;4960221;28;45572;-85
2021/08/06 12:21:02;;;;;;;;;0.33;0.33;;;;;23.68;48.17;100316.34;4943485;28;45389;-87
2021/08/06 12:23:29;;;;;;;;;0.33;0.33;;;;;23.93;47.85;100321.03;4960001;28;45333;-88
2021/08/06 12:26:10;;;;;;;;;1.00;0.33;;;;;23.96;47.34;100323.53;4960632;28;45464;-85
2021/08/06 12:35:53;;;;;;;;;1.00;1.00;;;;;24.02;46.36;100312.34;4793082;29;45562;-82
2021/08/06 12:41:53;;;;;;;;;1.00;1.00;;;;;24.13;45.50;100306.25;4862658;29;45538;-80
2021/08/06 12:44:20;;;;;;;;;1.00;1.00;;;;;24.29;46.39;100298.84;4896278;28;45531;-84
2021/08/06 12:47:12;;;;;;;;;0.67;0.67;;;;;24.40;45.62;100299.00;4962896;28;45477;-85
2021/08/06 12:49:52;;;;;;;;;1.00;1.00;;;;;24.54;45.66;100295.41;4962193;28;46620;-85
2021/08/06 12:52:21;;;;;;;;;1.00;1.00;;;;;24.72;45.78;100295.91;4970813;28;45199;-85
2021/08/06 12:55:07;;;;;;;;;1.00;1.00;;;;;24.91;44.70;100289.25;4955366;28;45502;-85
2021/08/06 12:57:42;;;;;;;;;1.00;1.00;;;;;24.97;44.78;100292.38;4962537;28;45642;-85
2021/08/06 13:00:23;;;;;;;;;1.67;0.00;;;;;24.99;43.71;100289.56;4951172;28;45472;-85
2021/08/06 13:03:12;;;;;;;;;1.00;1.00;;;;;25.04;44.15;100298.16;4965862;28;45275;-85
2021/08/06 13:06:00;;;;;;;;;0.00;0.00;;;;;25.04;43.98;100272.09;4952651;28;45425;-85
2021/08/06 13:08:38;;;;;;;;;1.00;0.00;;;;;25.12;42.73;100273.38;4948755;28;45517;-85
2021/08/06 13:11:04;;;;;;;;;0.00;0.00;;;;;25.22;43.54;100279.88;4946124;28;47218;-85
2021/08/06 13:13:49;;;;;;;;;0.00;0.00;;;;;25.30;43.28;100272.94;4972461;28;45500;-86
2021/08/06 13:16:19;;;;;;;;;0.33;0.33;;;;;25.38;43.88;100267.00;4951367;28;45280;-85
2021/08/06 13:18:52;;;;;;;;;1.00;1.00;;;;;25.47;43.61;100271.72;4960171;28;45496;-87
2021/08/06 13:21:20;;;;;;;;;1.00;1.00;;;;;25.46;43.16;100251.13;4944601;28;46312;-84
2021/08/06 13:23:46;;;;;;;;;0.67;0.67;;;;;25.59;43.45;100264.56;4970432;28;45477;-84
2021/08/06 13:26:11;;;;;;;;;0.67;0.67;;;;;25.74;42.95;100259.84;4962802;28;45536;-85
2021/08/06 13:28:38;;;;;;;;;0.00;0.00;;;;;25.89;42.48;100257.88;4962409;28;45390;-79
2021/08/06 13:31:05;;;;;;;;;0.00;0.00;;;;;26.03;42.63;100256.81;4965093;28;46946;-82
2021/08/06 13:33:30;;;;;;;;;0.00;0.00;;;;;26.04;41.72;100247.75;4944128;28;45842;-79
2021/08/06 13:35:57;;;;;;;;;0.33;0.33;;;;;26.09;41.52;100254.53;4962767;28;45921;-80
2021/08/06 13:38:23;;;;;;;;;0.00;0.00;;;;;26.13;41.58;100252.44;4962098;28;45465;-82
2021/08/06 13:40:48;;;;;;;;;0.33;0.00;;;;;26.13;41.05;100260.53;4944570;28;47483;-80
2021/08/06 13:43:14;;;;;;;;;0.00;0.00;;;;;26.25;41.49;100237.13;4958483;28;45702;-80
2021/08/06 13:45:39;;;;;;;;;0.00;0.00;;;;;26.43;40.38;100246.50;4960003;28;45560;-81
2021/08/06 13:48:08;;;;;;;;;0.00;0.00;;;;;26.52;40.62;100244.97;4960139;28;45466;-81
2021/08/06 13:50:35;;;;;;;;;0.00;0.00;;;;;26.56;41.31;100241.88;4961913;28;46537;-79
2021/08/06 13:53:01;;;;;;;;;1.67;0.33;;;;;26.66;40.37;100243.88;4960347;28;45580;-79
2021/08/06 13:55:26;;;;;;;;;0.00;0.00;;;;;26.74;39.52;100236.88;4959291;28;45570;-79
2021/08/06 13:57:52;;;;;;;;;0.00;0.00;;;;;26.87;39.14;100236.78;4944131;28;45650;-79
2021/08/06 14:00:17;;;;;;;;;0.00;0.00;;;;;26.97;38.71;100239.56;4959540;28;48325;-78
2021/08/06 14:02:43;;;;;;;;;0.00;0.00;;;;;26.99;38.54;100241.16;4959032;28;45540;-78
2021/08/06 14:05:09;;;;;;;;;0.00;0.00;;;;;27.05;38.69;100229.88;4968933;28;45506;-78
2021/08/06 14:07:35;;;;;;;;;0.33;0.00;;;;;27.27;39.16;100252.50;4943803;28;46437;-79
2021/08/06 14:10:02;;;;;;;;;0.67;0.00;;;;;27.39;37.40;100235.25;4961821;28;45418;-81
2021/08/06 14:12:28;;;;;;;;;0.00;0.00;;;;;27.36;37.69;100237.34;4961572;28;45235;-79
2021/08/06 14:14:53;;;;;;;;;0.67;0.67;;;;;27.47;37.70;100232.78;4959950;28;45247;-81
2021/08/06 14:17:19;;;;;;;;;0.33;0.33;;;;;27.67;36.64;100222.16;4959277;28;45567;-84
2021/08/06 14:19:44;;;;;;;;;1.00;0.00;;;;;27.90;36.56;100226.50;4944053;28;46193;-86